Time;durP1;ratioP1;P1;durP2;ratioP2;P2;SDS_P1;SDS_P2;PMS_P1;PMS_P2;Temp;Humidity;BMP_temperature;BMP_pressure;BME280_temperature;BME280_humidity;BME280_pressure;Samples;Min_cycle;Max_cycle;Signal;HPM_P1;HPM_P2
2023/05/13 00:00:46;;;;;;;3.20;1.53;;;;;;;;;;5035154;28;20177;-88
2023/05/13 00:03:12;;;;;;;4.10;2.33;;;;;;;;;;5035053;28;20478;-88
2023/05/13 00:05:39;;;;;;;3.10;1.57;;;;;;;;;;5034982;28;20192;-88
2023/05/13 00:08:06;;;;;;;2.47;1.90;;;;;;;;;;5034815;28;20943;-88
2023/05/13 00:10:32;;;;;;;2.80;2.30;;;;;;;;;;5034727;28;20433;-87
2023/05/13 00:12:58;;;;;;;3.60;2.20;;;;;;;;;;5034904;28;20433;-88
2023/05/13 00:15:24;;;;;;;3.63;2.63;;;;;;;;;;5034906;28;20495;-82
2023/05/13 00:17:50;;;;;;;3.57;2.27;;;;;;;;;;5017018;28;20429;-82
2023/05/13 00:20:16;;;;;;;2.80;2.10;;;;;;;;;;5034734;28;20778;-88
2023/05/13 00:22:42;;;;;;;4.17;2.77;;;;;;;;;;5034798;28;20170;-87
2023/05/13 00:25:08;;;;;;;3.90;2.40;;;;;;;;;;5034522;28;20422;-88
2023/05/13 00:27:34;;;;;;;5.50;2.80;;;;;;;;;;5034705;28;20603;-82
2023/05/13 00:30:00;;;;;;;7.30;3.67;;;;;;;;;;5037414;28;20777;-87
2023/05/13 00:32:26;;;;;;;4.70;2.27;;;;;;;;;;5040947;28;20423;-81
2023/05/13 00:34:53;;;;;;;4.03;1.87;;;;;;;;;;5041742;28;20432;-82
2023/05/13 00:37:19;;;;;;;3.30;2.67;;;;;;;;;;5042402;28;20420;-88
2023/05/13 00:39:47;;;;;;;4.60;2.80;;;;;;;;;;5024574;28;20473;-81
2023/05/13 00:42:14;;;;;;;4.13;2.73;;;;;;;;;;5043793;28;20410;-81
2023/05/13 00:44:40;;;;;;;3.87;3.13;;;;;;;;;;5026539;28;20449;-87
2023/05/13 00:47:06;;;;;;;3.00;2.00;;;;;;;;;;5024435;28;20471;-81
2023/05/13 00:49:32;;;;;;;5.13;2.93;;;;;;;;;;5043428;28;20916;-87
2023/05/13 00:51:58;;;;;;;4.80;3.33;;;;;;;;;;5043987;28;20480;-86
2023/05/13 00:54:24;;;;;;;6.20;2.93;;;;;;;;;;5041896;28;20450;-83
2023/05/13 00:56:55;;;;;;;4.83;2.20;;;;;;;;;;5041952;28;20421;-82
2023/05/13 00:59:22;;;;;;;4.13;2.43;;;;;;;;;;5042316;28;20416;-81
2023/05/13 01:02:15;;;;;;;4.70;2.57;;;;;;;;;;5039888;28;20430;-87
2023/05/13 01:04:51;;;;;;;3.77;2.07;;;;;;;;;;5024480;28;20427;-84
2023/05/13 01:07:16;;;;;;;3.10;1.90;;;;;;;;;;5053838;28;20543;-88
2023/05/13 01:09:56;;;;;;;6.30;2.60;;;;;;;;;;5035018;28;20463;-87
2023/05/13 01:12:28;;;;;;;5.37;3.27;;;;;;;;;;5053422;28;20660;-82
2023/05/13 01:14:59;;;;;;;3.60;2.23;;;;;;;;;;5053266;28;20928;-81
2023/05/13 01:17:31;;;;;;;4.87;3.07;;;;;;;;;;5035795;28;20425;-88
2023/05/13 01:19:57;;;;;;;3.70;2.83;;;;;;;;;;5036041;28;20428;-88
2023/05/13 01:22:26;;;;;;;5.67;3.10;;;;;;;;;;5053637;28;20499;-86
2023/05/13 01:24:52;;;;;;;5.10;3.83;;;;;;;;;;5053154;28;20478;-86
2023/05/13 01:27:18;;;;;;;3.93;2.83;;;;;;;;;;5053019;28;20507;-82
2023/05/13 01:29:44;;;;;;;4.80;3.37;;;;;;;;;;5052694;28;20505;-81
2023/05/13 01:32:11;;;;;;;4.10;3.40;;;;;;;;;;5053070;28;20418;-81
2023/05/13 01:34:38;;;;;;;4.37;3.97;;;;;;;;;;5052840;28;20901;-82
2023/05/13 01:37:05;;;;;;;4.63;3.20;;;;;;;;;;5052698;28;20421;-82
2023/05/13 01:39:31;;;;;;;6.00;3.40;;;;;;;;;;5052390;28;20477;-81
2023/05/13 01:41:58;;;;;;;4.17;3.40;;;;;;;;;;5052772;28;20423;-87
2023/05/13 01:44:24;;;;;;;6.40;3.30;;;;;;;;;;5052895;28;20838;-86
2023/05/13 01:46:50;;;;;;;4.23;3.00;;;;;;;;;;5052750;28;20891;-81
2023/05/13 01:49:16;;;;;;;4.80;3.60;;;;;;;;;;5052703;28;20413;-87
2023/05/13 01:51:42;;;;;;;5.03;3.33;;;;;;;;;;5052650;28;20684;-85
2023/05/13 01:54:08;;;;;;;6.77;4.07;;;;;;;;;;5052228;28;20454;-81
2023/05/13 01:56:43;;;;;;;4.33;2.67;;;;;;;;;;5052599;28;20416;-82
2023/05/13 01:59:09;;;;;;;4.37;3.50;;;;;;;;;;5052553;28;20704;-87
2023/05/13 02:01:35;;;;;;;5.03;3.43;;;;;;;;;;5052497;28;20451;-87
2023/05/13 02:04:01;;;;;;;5.20;2.67;;;;;;;;;;5052442;28;20412;-85
2023/05/13 02:06:27;;;;;;;4.53;3.20;;;;;;;;;;5052472;28;21004;-85
2023/05/13 02:08:53;;;;;;;5.73;3.80;;;;;;;;;;5052195;28;20464;-86
2023/05/13 02:11:20;;;;;;;4.63;3.00;;;;;;;;;;5034228;28;20434;-87
2023/05/13 02:13:47;;;;;;;6.50;4.17;;;;;;;;;;5056947;28;20497;-88
2023/05/13 02:16:16;;;;;;;4.77;3.97;;;;;;;;;;5056034;28;20460;-85
2023/05/13 02:18:42;;;;;;;5.80;3.33;;;;;;;;;;5039326;28;20419;-86
2023/05/13 02:21:08;;;;;;;5.13;3.43;;;;;;;;;;5038922;28;20468;-81
2023/05/13 02:23:34;;;;;;;6.37;3.43;;;;;;;;;;5038803;28;20501;-85
2023/05/13 02:26:00;;;;;;;6.93;4.37;;;;;;;;;;5038434;28;20964;-87
2023/05/13 02:28:35;;;;;;;5.00;4.50;;;;;;;;;;5020772;28;20842;-87
2023/05/13 02:31:01;;;;;;;5.20;4.27;;;;;;;;;;5038368;28;20199;-86
2023/05/13 02:33:27;;;;;;;6.10;3.70;;;;;;;;;;5020704;28;21026;-87
2023/05/13 02:35:53;;;;;;;6.50;4.40;;;;;;;;;;5038555;28;21490;-81
2023/05/13 02:38:18;;;;;;;6.30;4.20;;;;;;;;;;5038862;28;20412;-87
2023/05/13 02:40:44;;;;;;;8.90;4.43;;;;;;;;;;5038519;28;20512;-86
2023/05/13 02:43:10;;;;;;;5.00;3.97;;;;;;;;;;5038843;28;20178;-83
2023/05/13 02:45:36;;;;;;;6.13;4.77;;;;;;;;;;5038848;28;20446;-83
2023/05/13 02:48:02;;;;;;;6.03;4.10;;;;;;;;;;5038907;28;20210;-85
2023/05/13 02:50:28;;;;;;;5.80;4.43;;;;;;;;;;5020709;28;20427;-81
2023/05/13 02:52:54;;;;;;;7.33;5.77;;;;;;;;;;5021016;28;20419;-81
2023/05/13 02:55:20;;;;;;;5.33;4.67;;;;;;;;;;5038392;28;20410;-86
2023/05/13 02:57:51;;;;;;;6.47;3.70;;;;;;;;;;5038707;28;20173;-85
2023/05/13 03:00:18;;;;;;;5.53;4.53;;;;;;;;;;5020986;28;20417;-81
2023/05/13 03:02:43;;;;;;;7.17;5.77;;;;;;;;;;5038502;28;20422;-84
2023/05/13 03:05:09;;;;;;;6.17;5.40;;;;;;;;;;5038682;28;20911;-86
2023/05/13 03:07:35;;;;;;;5.00;4.50;;;;;;;;;;5038757;28;20563;-81
2023/05/13 03:10:01;;;;;;;9.93;4.80;;;;;;;;;;5038345;28;21038;-87
2023/05/13 03:12:27;;;;;;;11.00;5.80;;;;;;;;;;5039006;28;20521;-83
2023/05/13 03:14:53;;;;;;;5.80;5.30;;;;;;;;;;5039717;28;20418;-81
2023/05/13 03:17:19;;;;;;;7.27;6.57;;;;;;;;;;5039166;28;20418;-82
2023/05/13 03:19:45;;;;;;;7.30;5.37;;;;;;;;;;5019236;28;20420;-86
2023/05/13 03:22:11;;;;;;;7.87;5.60;;;;;;;;;;5038275;28;20517;-86
2023/05/13 03:24:37;;;;;;;8.40;5.97;;;;;;;;;;5035843;28;20903;-88
2023/05/13 03:27:03;;;;;;;7.90;6.23;;;;;;;;;;5034923;28;20513;-86
2023/05/13 03:29:29;;;;;;;9.40;5.63;;;;;;;;;;5017927;28;20490;-86
2023/05/13 03:31:55;;;;;;;7.70;5.60;;;;;;;;;;5017647;28;20415;-87
2023/05/13 03:34:21;;;;;;;5.83;4.60;;;;;;;;;;5034465;28;20938;-88
2023/05/13 03:36:46;;;;;;;7.60;6.00;;;;;;;;;;5018184;28;20906;-85
2023/05/13 03:39:12;;;;;;;7.60;6.37;;;;;;;;;;5036347;28;20425;-86
2023/05/13 03:41:38;;;;;;;8.17;6.03;;;;;;;;;;5035532;28;20409;-86
2023/05/13 03:44:05;;;;;;;8.40;5.97;;;;;;;;;;5017392;28;20183;-86
2023/05/13 03:46:30;;;;;;;7.47;6.00;;;;;;;;;;5035036;28;20567;-84
2023/05/13 03:48:56;;;;;;;7.80;5.40;;;;;;;;;;5035066;28;20464;-87
2023/05/13 03:51:22;;;;;;;10.30;7.47;;;;;;;;;;5034917;28;20406;-82
2023/05/13 03:53:48;;;;;;;9.30;6.67;;;;;;;;;;5034489;28;20455;-83
2023/05/13 03:56:14;;;;;;;9.43;6.05;;;;;;;;;;5034760;28;20360;-88
2023/05/13 03:58:40;;;;;;;9.43;6.80;;;;;;;;;;5034825;28;20176;-85
2023/05/13 04:01:07;;;;;;;8.52;6.88;;;;;;;;;;5034520;28;20870;-85
2023/05/13 04:03:33;;;;;;;11.97;7.17;;;;;;;;;;5016645;28;20178;-85
2023/05/13 04:05:59;;;;;;;6.97;6.20;;;;;;;;;;5016759;28;20414;-82
2023/05/13 04:08:25;;;;;;;10.03;7.33;;;;;;;;;;5016562;28;20597;-86
2023/05/13 04:10:51;;;;;;;8.63;6.87;;;;;;;;;;5034328;28;20437;-85
2023/05/13 04:13:17;;;;;;;9.73;7.23;;;;;;;;;;5034543;28;20419;-84
2023/05/13 04:15:43;;;;;;;8.77;6.13;;;;;;;;;;5034712;28;20420;-83
2023/05/13 04:18:12;;;;;;;9.00;7.43;;;;;;;;;;5034142;28;20204;-87
2023/05/13 04:20:41;;;;;;;10.20;7.83;;;;;;;;;;5034451;28;20421;-86
2023/05/13 04:23:07;;;;;;;9.37;7.17;;;;;;;;;;5034281;28;20778;-81
2023/05/13 04:25:34;;;;;;;10.33;6.70;;;;;;;;;;5016319;28;20409;-86
2023/05/13 04:28:00;;;;;;;10.70;7.70;;;;;;;;;;5034231;28;20508;-82
2023/05/13 04:30:28;;;;;;;8.43;7.30;;;;;;;;;;5016371;28;20427;-86
2023/05/13 04:32:54;;;;;;;8.73;6.77;;;;;;;;;;5034162;28;20468;-81
2023/05/13 04:35:20;;;;;;;7.97;6.70;;;;;;;;;;5033607;28;20423;-86
2023/05/13 04:37:46;;;;;;;8.77;6.83;;;;;;;;;;5016260;28;20415;-87
2023/05/13 04:40:12;;;;;;;7.47;6.40;;;;;;;;;;5015932;28;20430;-84
2023/05/13 04:42:38;;;;;;;6.50;5.90;;;;;;;;;;5033873;28;20421;-86
2023/05/13 04:45:04;;;;;;;9.60;7.67;;;;;;;;;;5033805;28;20464;-85
2023/05/13 04:47:33;;;;;;;10.13;7.30;;;;;;;;;;5016064;28;20882;-84
2023/05/13 04:49:59;;;;;;;9.77;7.50;;;;;;;;;;5033687;28;20492;-82
2023/05/13 04:52:25;;;;;;;10.73;8.20;;;;;;;;;;5033817;28;20528;-81
2023/05/13 04:54:51;;;;;;;9.00;7.10;;;;;;;;;;5015810;28;20418;-82
2023/05/13 04:57:17;;;;;;;7.77;6.33;;;;;;;;;;5033780;28;20428;-86
2023/05/13 04:59:43;;;;;;;12.10;7.63;;;;;;;;;;5033709;28;20807;-87
2023/05/13 05:02:09;;;;;;;7.80;7.03;;;;;;;;;;5033427;28;20428;-86
2023/05/13 05:04:35;;;;;;;7.50;6.67;;;;;;;;;;5033761;28;20178;-87
2023/05/13 05:07:01;;;;;;;8.93;7.10;;;;;;;;;;5034238;28;20469;-87
2023/05/13 05:09:28;;;;;;;8.07;7.20;;;;;;;;;;5034503;28;20466;-87
2023/05/13 05:11:54;;;;;;;11.43;7.33;;;;;;;;;;5034580;28;20420;-86
2023/05/13 05:14:21;;;;;;;11.03;6.13;;;;;;;;;;5016615;28;20444;-87
2023/05/13 05:16:47;;;;;;;9.50;6.43;;;;;;;;;;5022855;28;20419;-84
2023/05/13 05:19:13;;;;;;;7.47;5.63;;;;;;;;;;5001093;28;20467;-87
2023/05/13 05:21:39;;;;;;;6.70;5.93;;;;;;;;;;5017143;28;20263;-87
2023/05/13 05:24:05;;;;;;;8.97;5.93;;;;;;;;;;5034945;28;20449;-87
2023/05/13 05:26:31;;;;;;;7.20;4.60;;;;;;;;;;5034120;28;20938;-87
2023/05/13 05:28:57;;;;;;;8.03;6.30;;;;;;;;;;5034336;28;20430;-88
2023/05/13 05:31:25;;;;;;;8.43;5.83;;;;;;;;;;5032575;28;20787;-85
2023/05/13 05:33:51;;;;;;;7.80;5.17;;;;;;;;;;5034209;28;20417;-87
2023/05/13 05:36:17;;;;;;;7.50;4.60;;;;;;;;;;5034094;28;20899;-87
2023/05/13 05:38:43;;;;;;;5.97;5.37;;;;;;;;;;5033035;28;20895;-87
2023/05/13 05:41:09;;;;;;;5.67;4.23;;;;;;;;;;5034008;28;20771;-86
2023/05/13 05:43:35;;;;;;;4.70;3.27;;;;;;;;;;5033704;28;20417;-87
2023/05/13 05:46:01;;;;;;;9.40;4.50;;;;;;;;;;5014397;28;20423;-87
2023/05/13 05:48:27;;;;;;;5.20;3.93;;;;;;;;;;5013496;28;20573;-85
2023/05/13 05:50:54;;;;;;;6.37;4.30;;;;;;;;;;5013065;28;20233;-86
2023/05/13 05:53:20;;;;;;;5.77;4.07;;;;;;;;;;5015066;28;20515;-88
2023/05/13 05:55:46;;;;;;;5.20;3.20;;;;;;;;;;5015031;28;20446;-88
2023/05/13 05:58:15;;;;;;;4.53;3.07;;;;;;;;;;5014370;28;20421;-88
2023/05/13 06:00:41;;;;;;;5.33;3.30;;;;;;;;;;5014488;28;20301;-88
2023/05/13 06:03:07;;;;;;;5.40;3.30;;;;;;;;;;5014070;28;20424;-87
2023/05/13 06:05:34;;;;;;;7.00;3.80;;;;;;;;;;4996467;28;20624;-87
2023/05/13 06:08:00;;;;;;;3.90;3.27;;;;;;;;;;5014053;28;20474;-82
2023/05/13 06:10:25;;;;;;;5.17;3.03;;;;;;;;;;5016121;28;20828;-82
2023/05/13 06:12:51;;;;;;;3.37;3.07;;;;;;;;;;4997980;28;20188;-81
2023/05/13 06:15:17;;;;;;;4.10;3.47;;;;;;;;;;5014982;28;20185;-87
2023/05/13 06:17:43;;;;;;;3.70;2.63;;;;;;;;;;5014280;28;20436;-85
2023/05/13 06:20:09;;;;;;;5.40;2.90;;;;;;;;;;5014566;28;20205;-87
2023/05/13 06:22:35;;;;;;;3.40;2.90;;;;;;;;;;5015001;28;20185;-81
2023/05/13 06:25:01;;;;;;;2.73;2.53;;;;;;;;;;4996104;28;20784;-84
2023/05/13 06:27:27;;;;;;;3.90;2.67;;;;;;;;;;5013325;28;20221;-87
2023/05/13 06:29:53;;;;;;;4.67;2.00;;;;;;;;;;4995655;28;20176;-87
2023/05/13 06:32:19;;;;;;;5.00;2.80;;;;;;;;;;5000393;28;20484;-84
2023/05/13 06:34:47;;;;;;;3.57;2.27;;;;;;;;;;5030085;28;20524;-88
2023/05/13 06:37:13;;;;;;;4.47;2.87;;;;;;;;;;5014508;28;20576;-88
2023/05/13 06:39:42;;;;;;;4.80;2.13;;;;;;;;;;5013676;28;20424;-86
2023/05/13 06:42:08;;;;;;;2.33;2.00;;;;;;;;;;5032603;28;20437;-87
2023/05/13 06:44:34;;;;;;;3.80;2.87;;;;;;;;;;5032367;28;20413;-87
2023/05/13 06:47:01;;;;;;;3.10;2.60;;;;;;;;;;5014714;28;20209;-87
2023/05/13 06:49:27;;;;;;;2.80;2.20;;;;;;;;;;5032375;28;20413;-86
2023/05/13 06:51:53;;;;;;;4.10;2.30;;;;;;;;;;5032483;28;20412;-88
2023/05/13 06:54:19;;;;;;;6.67;2.80;;;;;;;;;;5031196;28;20773;-84
2023/05/13 06:56:45;;;;;;;3.00;2.50;;;;;;;;;;5014439;28;20484;-86
2023/05/13 06:59:11;;;;;;;2.37;2.17;;;;;;;;;;5033637;28;20185;-87
2023/05/13 07:01:37;;;;;;;3.53;1.63;;;;;;;;;;5036630;28;20416;-85
2023/05/13 07:04:03;;;;;;;3.33;2.20;;;;;;;;;;5036308;28;20416;-87
2023/05/13 07:06:29;;;;;;;3.83;2.17;;;;;;;;;;5035799;28;20175;-87
2023/05/13 07:08:56;;;;;;;3.90;3.60;;;;;;;;;;5035381;28;20522;-87
2023/05/13 07:11:21;;;;;;;1.97;1.47;;;;;;;;;;5018342;28;20459;-87
2023/05/13 07:13:47;;;;;;;2.80;2.50;;;;;;;;;;5035829;28;20506;-85
2023/05/13 07:16:13;;;;;;;2.83;1.90;;;;;;;;;;5035980;28;20174;-87
2023/05/13 07:18:39;;;;;;;2.80;2.27;;;;;;;;;;5035878;28;20416;-87
2023/05/13 07:21:05;;;;;;;5.90;1.97;;;;;;;;;;5018418;28;20428;-88
2023/05/13 07:23:32;;;;;;;3.00;1.83;;;;;;;;;;5017944;28;20575;-86
2023/05/13 07:25:58;;;;;;;3.30;2.73;;;;;;;;;;5036974;28;20551;-88
2023/05/13 07:28:23;;;;;;;3.43;2.30;;;;;;;;;;5036973;28;20969;-88
2023/05/13 07:30:52;;;;;;;2.90;2.27;;;;;;;;;;5035909;28;20177;-87
2023/05/13 07:33:18;;;;;;;2.70;2.00;;;;;;;;;;5036390;28;20198;-88
2023/05/13 07:35:44;;;;;;;2.80;2.40;;;;;;;;;;5017941;28;20900;-87
2023/05/13 07:38:10;;;;;;;3.10;2.47;;;;;;;;;;5035265;28;20225;-88
2023/05/13 07:40:36;;;;;;;4.37;2.70;;;;;;;;;;5035640;28;20953;-87
2023/05/13 07:43:02;;;;;;;3.50;2.33;;;;;;;;;;5035494;28;20409;-86
2023/05/13 07:45:28;;;;;;;3.23;1.90;;;;;;;;;;5035365;28;20464;-86
2023/05/13 07:47:55;;;;;;;2.93;2.13;;;;;;;;;;5035332;28;20268;-87
2023/05/13 07:50:20;;;;;;;2.90;2.60;;;;;;;;;;5035304;28;20440;-88
2023/05/13 07:52:56;;;;;;;2.07;1.67;;;;;;;;;;5035279;28;20841;-88
2023/05/13 07:55:22;;;;;;;3.20;2.30;;;;;;;;;;5034937;28;20194;-88
2023/05/13 07:57:48;;;;;;;3.10;1.97;;;;;;;;;;5035346;28;20444;-89
2023/05/13 08:00:14;;;;;;;2.43;1.43;;;;;;;;;;5035116;28;20602;-87
2023/05/13 08:02:41;;;;;;;2.70;1.90;;;;;;;;;;5035267;28;20170;-86
2023/05/13 08:05:07;;;;;;;3.37;1.93;;;;;;;;;;5054980;28;20408;-86
2023/05/13 08:07:33;;;;;;;2.87;2.30;;;;;;;;;;5054878;28;20472;-81
2023/05/13 08:09:59;;;;;;;1.97;1.50;;;;;;;;;;5054156;28;20818;-86
2023/05/13 08:12:28;;;;;;;2.93;2.03;;;;;;;;;;5054221;28;20176;-87
2023/05/13 08:14:54;;;;;;;3.60;2.13;;;;;;;;;;5054591;28;20184;-86
2023/05/13 08:17:21;;;;;;;3.47;2.13;;;;;;;;;;5054778;28;20404;-85
2023/05/13 08:19:47;;;;;;;2.47;2.27;;;;;;;;;;5054745;28;20840;-86
2023/05/13 08:22:13;;;;;;;2.93;2.17;;;;;;;;;;5054672;28;20443;-86
2023/05/13 08:24:39;;;;;;;3.23;2.07;;;;;;;;;;5031570;28;20310;-81
2023/05/13 08:27:05;;;;;;;3.20;1.80;;;;;;;;;;5023692;28;20202;-86
2023/05/13 08:29:31;;;;;;;2.07;1.87;;;;;;;;;;5034422;28;20421;-85
2023/05/13 08:31:57;;;;;;;2.27;2.07;;;;;;;;;;5034306;28;20890;-80
2023/05/13 08:34:23;;;;;;;2.80;2.03;;;;;;;;;;5034280;28;20182;-86
2023/05/13 08:36:49;;;;;;;1.70;1.60;;;;;;;;;;5034287;28;20171;-86
2023/05/13 08:39:15;;;;;;;2.57;2.13;;;;;;;;;;5033870;28;20175;-86
2023/05/13 08:41:41;;;;;;;2.97;2.17;;;;;;;;;;5034093;28;20599;-86
2023/05/13 08:44:08;;;;;;;2.33;2.13;;;;;;;;;;5033985;28;20186;-86
2023/05/13 08:46:36;;;;;;;1.67;1.57;;;;;;;;;;5034030;28;20416;-88
2023/05/13 08:49:02;;;;;;;3.60;2.20;;;;;;;;;;5034024;28;20432;-87
2023/05/13 08:51:29;;;;;;;2.83;1.97;;;;;;;;;;5033880;28;20788;-84
2023/05/13 08:53:55;;;;;;;3.93;1.97;;;;;;;;;;5033572;28;20170;-84
2023/05/13 08:56:24;;;;;;;2.10;1.90;;;;;;;;;;5033807;28;20423;-87
2023/05/13 08:58:50;;;;;;;2.20;1.80;;;;;;;;;;5034056;28;20409;-86
2023/05/13 09:01:16;;;;;;;2.60;1.73;;;;;;;;;;5034444;28;20513;-88
2023/05/13 09:03:51;;;;;;;2.87;2.10;;;;;;;;;;5035266;28;20412;-89
2023/05/13 09:06:17;;;;;;;1.57;1.47;;;;;;;;;;5034384;28;20413;-87
2023/05/13 09:08:43;;;;;;;2.50;2.30;;;;;;;;;;5034954;28;20493;-88
2023/05/13 09:11:09;;;;;;;2.50;1.90;;;;;;;;;;5035992;28;20428;-86
2023/05/13 09:13:35;;;;;;;2.73;1.57;;;;;;;;;;5034432;28;20233;-86
2023/05/13 09:16:01;;;;;;;2.37;1.50;;;;;;;;;;5034441;28;20460;-88
2023/05/13 09:18:31;;;;;;;2.33;1.83;;;;;;;;;;5040890;28;20585;-86
2023/05/13 09:20:57;;;;;;;2.30;1.80;;;;;;;;;;5026838;28;20456;-87
2023/05/13 09:23:23;;;;;;;3.20;2.23;;;;;;;;;;5018848;28;20778;-86
2023/05/13 09:25:48;;;;;;;2.40;2.20;;;;;;;;;;5014035;28;20410;-84
2023/05/13 09:28:14;;;;;;;3.03;1.57;;;;;;;;;;4996313;28;20465;-87
2023/05/13 09:30:41;;;;;;;2.60;1.83;;;;;;;;;;4996555;28;20202;-87
2023/05/13 09:33:08;;;;;;;3.00;2.00;;;;;;;;;;5013785;28;20414;-85
2023/05/13 09:35:35;;;;;;;2.20;2.10;;;;;;;;;;5013116;28;20425;-89
2023/05/13 09:38:01;;;;;;;2.40;1.93;;;;;;;;;;5013452;28;20414;-89
2023/05/13 09:40:27;;;;;;;3.63;2.33;;;;;;;;;;5013647;28;20497;-88
2023/05/13 09:42:59;;;;;;;3.47;2.63;;;;;;;;;;5013559;28;20493;-89
2023/05/13 09:45:25;;;;;;;2.27;2.00;;;;;;;;;;4995829;28;20484;-86
2023/05/13 09:47:52;;;;;;;2.37;1.60;;;;;;;;;;5013391;28;20473;-90
2023/05/13 09:50:18;;;;;;;3.13;2.83;;;;;;;;;;5013096;28;20864;-85
2023/05/13 09:52:45;;;;;;;3.47;1.87;;;;;;;;;;5083854;23;20496;-85
2023/05/13 09:55:11;;;;;;;2.13;1.93;;;;;;;;;;5013460;28;20390;-88
2023/05/13 09:57:38;;;;;;;2.60;1.93;;;;;;;;;;4995873;28;20492;-85
2023/05/13 10:00:08;;;;;;;3.47;2.20;;;;;;;;;;4995799;28;20413;-86
2023/05/13 10:02:34;;;;;;;5.47;2.73;;;;;;;;;;5026903;28;20859;-88
2023/05/13 10:05:05;;;;;;;2.13;1.83;;;;;;;;;;5017487;28;20545;-88
2023/05/13 10:07:33;;;;;;;2.93;2.17;;;;;;;;;;5013136;28;20572;-89
2023/05/13 10:10:00;;;;;;;2.47;1.90;;;;;;;;;;5012909;28;20402;-88
2023/05/13 10:12:27;;;;;;;3.83;2.10;;;;;;;;;;4995454;28;20788;-88
2023/05/13 10:14:53;;;;;;;2.10;1.90;;;;;;;;;;5012679;28;20414;-86
2023/05/13 10:17:20;;;;;;;4.50;2.50;;;;;;;;;;4991362;28;20426;-82
2023/05/13 10:19:48;;;;;;;3.20;2.50;;;;;;;;;;4995368;28;20421;-87
2023/05/13 10:22:14;;;;;;;3.93;1.93;;;;;;;;;;5012789;28;20422;-86
2023/05/13 10:24:41;;;;;;;2.13;1.90;;;;;;;;;;4991486;28;20773;-87
2023/05/13 10:27:07;;;;;;;3.90;2.27;;;;;;;;;;4997335;28;20484;-85
2023/05/13 10:29:36;;;;;;;2.27;1.87;;;;;;;;;;5004661;28;20415;-84
2023/05/13 10:32:03;;;;;;;4.00;1.87;;;;;;;;;;4995106;28;20422;-85
2023/05/13 10:34:31;;;;;;;2.30;2.00;;;;;;;;;;5013785;28;20436;-86
2023/05/13 10:37:08;;;;;;;2.53;2.23;;;;;;;;;;5016949;28;20452;-83
2023/05/13 10:39:53;;;;;;;5.70;2.90;;;;;;;;;;5018861;28;20416;-85
2023/05/13 10:42:28;;;;;;;4.70;2.27;;;;;;;;;;4998960;28;20467;-83
2023/05/13 10:44:54;;;;;;;2.33;1.73;;;;;;;;;;4997487;28;20406;-88
2023/05/13 10:47:20;;;;;;;1.80;1.43;;;;;;;;;;4979272;28;20501;-86
2023/05/13 10:49:52;;;;;;;2.47;1.70;;;;;;;;;;4997269;28;20415;-85
2023/05/13 10:52:19;;;;;;;2.80;1.57;;;;;;;;;;4979299;28;20481;-86
2023/05/13 10:54:59;;;;;;;2.33;2.13;;;;;;;;;;4979352;28;20827;-87
2023/05/13 10:57:29;;;;;;;2.90;1.60;;;;;;;;;;4997135;28;20414;-86
2023/05/13 11:00:14;;;;;;;2.90;1.47;;;;;;;;;;4997161;28;20469;-85
2023/05/13 11:02:43;;;;;;;3.30;1.50;;;;;;;;;;4979074;28;20438;-87
2023/05/13 11:05:09;;;;;;;3.20;1.10;;;;;;;;;;4996671;28;20453;-86
2023/05/13 11:07:38;;;;;;;2.80;1.23;;;;;;;;;;4996370;28;20844;-84
2023/05/13 11:10:23;;;;;;;2.20;1.13;;;;;;;;;;4996760;28;20414;-82
2023/05/13 11:13:07;;;;;;;1.70;1.20;;;;;;;;;;4996779;28;20493;-84
2023/05/13 11:15:48;;;;;;;1.80;1.53;;;;;;;;;;4996604;28;20466;-87
2023/05/13 11:18:14;;;;;;;3.13;2.00;;;;;;;;;;4996205;28;20411;-82
2023/05/13 11:20:40;;;;;;;1.90;1.70;;;;;;;;;;4996408;28;20403;-84
2023/05/13 11:23:07;;;;;;;2.73;1.73;;;;;;;;;;4996078;28;20505;-84
2023/05/13 11:25:34;;;;;;;3.43;1.83;;;;;;;;;;4997218;28;20271;-85
2023/05/13 11:28:00;;;;;;;2.13;1.43;;;;;;;;;;4980215;28;20847;-87
2023/05/13 11:30:26;;;;;;;2.80;1.40;;;;;;;;;;4996229;28;20414;-83
2023/05/13 11:32:56;;;;;;;2.07;1.90;;;;;;;;;;4979260;28;20423;-87
2023/05/13 11:35:30;;;;;;;2.00;1.77;;;;;;;;;;5053940;23;20493;-88
2023/05/13 11:37:56;;;;;;;1.97;1.70;;;;;;;;;;5102642;22;20492;-84
2023/05/13 11:40:30;;;;;;;3.40;1.57;;;;;;;;;;5035337;28;20417;-86
2023/05/13 11:42:57;;;;;;;6.43;2.37;;;;;;;;;;5036022;28;20421;-86
2023/05/13 11:45:23;;;;;;;2.23;1.90;;;;;;;;;;5033785;28;20413;-88
2023/05/13 11:47:49;;;;;;;2.57;2.23;;;;;;;;;;5017805;28;20487;-87
2023/05/13 11:50:19;;;;;;;1.77;1.33;;;;;;;;;;5035455;28;20416;-87
2023/05/13 11:52:49;;;;;;;2.70;1.47;;;;;;;;;;5034998;28;20899;-85
2023/05/13 11:55:24;;;;;;;1.90;1.70;;;;;;;;;;5034846;28;20409;-85
2023/05/13 11:57:50;;;;;;;1.90;1.60;;;;;;;;;;5035390;28;20416;-84
2023/05/13 12:00:16;;;;;;;3.33;1.30;;;;;;;;;;5017084;28;20413;-85
2023/05/13 12:02:44;;;;;;;1.63;1.20;;;;;;;;;;5035257;28;20483;-86
2023/05/13 12:05:11;;;;;;;2.20;1.07;;;;;;;;;;5035285;28;20413;-84
2023/05/13 12:07:38;;;;;;;1.67;1.10;;;;;;;;;;5016971;28;20477;-85
2023/05/13 12:10:05;;;;;;;6.40;1.30;;;;;;;;;;5036054;28;20414;-85
2023/05/13 12:12:33;;;;;;;1.60;0.97;;;;;;;;;;5032767;28;20434;-88
2023/05/13 12:15:00;;;;;;;1.20;0.93;;;;;;;;;;5016054;28;20803;-86
2023/05/13 12:17:26;;;;;;;1.53;1.17;;;;;;;;;;5034764;28;20488;-86
2023/05/13 12:20:10;;;;;;;1.87;1.30;;;;;;;;;;5017270;28;20421;-90
2023/05/13 12:22:36;;;;;;;3.47;1.10;;;;;;;;;;5034580;28;20842;-86
2023/05/13 12:25:22;;;;;;;1.20;1.00;;;;;;;;;;5034721;28;20428;-89
2023/05/13 12:27:52;;;;;;;1.10;1.00;;;;;;;;;;5016848;28;21053;-85
2023/05/13 12:30:18;;;;;;;2.80;1.50;;;;;;;;;;5016686;28;20429;-88
2023/05/13 12:32:44;;;;;;;1.30;1.20;;;;;;;;;;5034740;28;20480;-89
2023/05/13 12:35:13;;;;;;;2.07;1.07;;;;;;;;;;5034674;28;20445;-87
2023/05/13 12:37:40;;;;;;;2.30;1.30;;;;;;;;;;5033877;28;20538;-88
2023/05/13 12:40:12;;;;;;;2.07;1.87;;;;;;;;;;5034410;28;20460;-87
2023/05/13 12:42:38;;;;;;;2.90;1.57;;;;;;;;;;5017312;28;20409;-84
2023/05/13 12:45:05;;;;;;;2.20;1.50;;;;;;;;;;5034213;28;20415;-90
2023/05/13 12:47:30;;;;;;;5.13;2.10;;;;;;;;;;5030485;28;20536;-84
2023/05/13 12:50:02;;;;;;;1.60;1.50;;;;;;;;;;5104110;22;20965;-89
2023/05/13 12:52:27;;;;;;;1.67;0.97;;;;;;;;;;5035836;28;20220;-89
2023/05/13 12:54:53;;;;;;;2.50;1.23;;;;;;;;;;5047678;28;20421;-85
2023/05/13 12:57:19;;;;;;;3.10;1.30;;;;;;;;;;5015414;28;20185;-86
2023/05/13 12:59:45;;;;;;;3.77;1.70;;;;;;;;;;5015430;28;20178;-85
2023/05/13 13:02:12;;;;;;;1.33;1.20;;;;;;;;;;5033328;28;20547;-86
2023/05/13 13:04:40;;;;;;;2.90;1.23;;;;;;;;;;5033163;28;20508;-86
2023/05/13 13:07:11;;;;;;;2.40;1.30;;;;;;;;;;5033476;28;20453;-86
2023/05/13 13:09:37;;;;;;;1.80;1.23;;;;;;;;;;5033342;28;20425;-86
2023/05/13 13:12:03;;;;;;;1.60;1.47;;;;;;;;;;5032661;28;20425;-85
2023/05/13 13:14:29;;;;;;;1.40;1.20;;;;;;;;;;5015571;28;20305;-85
2023/05/13 13:16:55;;;;;;;1.30;1.20;;;;;;;;;;5033067;28;20420;-88
2023/05/13 13:19:21;;;;;;;1.40;1.30;;;;;;;;;;5015811;28;20241;-86
2023/05/13 13:21:47;;;;;;;2.30;1.20;;;;;;;;;;5033645;28;20421;-89
2023/05/13 13:24:12;;;;;;;3.33;1.43;;;;;;;;;;5033437;28;20233;-86
2023/05/13 13:26:38;;;;;;;2.43;1.23;;;;;;;;;;5032961;28;20236;-90
2023/05/13 13:29:04;;;;;;;2.50;1.07;;;;;;;;;;5015608;28;20440;-88
2023/05/13 13:31:30;;;;;;;1.20;1.10;;;;;;;;;;5015723;28;20178;-86
2023/05/13 13:34:02;;;;;;;2.20;1.27;;;;;;;;;;5032976;28;20175;-84
2023/05/13 13:36:28;;;;;;;1.83;1.33;;;;;;;;;;5015532;28;20198;-87
2023/05/13 13:38:54;;;;;;;2.23;1.17;;;;;;;;;;5032979;28;20933;-85
2023/05/13 13:41:24;;;;;;;2.87;1.80;;;;;;;;;;5032791;28;20413;-85
2023/05/13 13:43:50;;;;;;;1.87;1.27;;;;;;;;;;5032894;28;20273;-86
2023/05/13 13:46:16;;;;;;;1.60;1.33;;;;;;;;;;5015178;28;20967;-87
2023/05/13 13:48:42;;;;;;;1.50;1.40;;;;;;;;;;5015145;28;20572;-84
2023/05/13 13:51:07;;;;;;;3.00;1.40;;;;;;;;;;5015229;28;20461;-87
2023/05/13 13:53:33;;;;;;;4.23;2.07;;;;;;;;;;5032627;28;20599;-85
2023/05/13 13:55:59;;;;;;;1.57;1.33;;;;;;;;;;5014488;28;20252;-89
2023/05/13 13:58:25;;;;;;;1.20;1.10;;;;;;;;;;5033235;28;20259;-84
2023/05/13 14:00:51;;;;;;;1.70;1.07;;;;;;;;;;5032943;28;20453;-85
2023/05/13 14:03:18;;;;;;;1.67;1.37;;;;;;;;;;5016250;28;20966;-88
2023/05/13 14:05:44;;;;;;;1.80;1.53;;;;;;;;;;5032333;28;20547;-81
2023/05/13 14:08:10;;;;;;;2.10;1.40;;;;;;;;;;5014678;28;20472;-86
2023/05/13 14:10:36;;;;;;;2.53;1.30;;;;;;;;;;5032307;28;20840;-88
2023/05/13 14:13:02;;;;;;;1.50;1.30;;;;;;;;;;5016485;28;20479;-85
2023/05/13 14:15:29;;;;;;;4.07;1.20;;;;;;;;;;5033830;28;20177;-81
2023/05/13 14:17:55;;;;;;;3.03;1.47;;;;;;;;;;5033043;28;20409;-90
2023/05/13 14:20:22;;;;;;;1.67;1.10;;;;;;;;;;5033112;28;20409;-88
2023/05/13 14:22:48;;;;;;;1.57;1.47;;;;;;;;;;5033706;28;20413;-90
2023/05/13 14:25:14;;;;;;;1.90;1.57;;;;;;;;;;5033535;28;20447;-91
2023/05/13 14:27:40;;;;;;;3.27;1.43;;;;;;;;;;5033964;28;20205;-88
2023/05/13 14:30:06;;;;;;;1.80;1.27;;;;;;;;;;5033836;28;20409;-88
2023/05/13 14:32:32;;;;;;;1.97;1.87;;;;;;;;;;5016275;28;20433;-87
2023/05/13 14:34:58;;;;;;;2.30;1.27;;;;;;;;;;5034083;28;20790;-88
2023/05/13 14:37:24;;;;;;;1.50;1.00;;;;;;;;;;5033128;28;20413;-90
2023/05/13 14:39:50;;;;;;;1.30;1.10;;;;;;;;;;5032982;28;20185;-90
2023/05/13 14:42:17;;;;;;;3.40;1.60;;;;;;;;;;5033624;28;20409;-89